sensor_id;sensor_type;location;lat;lon;timestamp;pressure;altitude;pressure_sealevel;temperature;humidity
62124;BME280;48110;47.532;19.078;2022-09-12T00:02:20;100168.53;;;14.22;100.00
62124;BME280;48110;47.532;19.078;2022-09-12T00:05:24;100177.50;;;14.14;100.00
62124;BME280;48110;47.532;19.078;2022-09-12T00:08:27;100181.66;;;14.17;100.00
62124;BME280;48110;47.532;19.078;2022-09-12T00:11:30;100169.91;;;14.11;100.00
62124;BME280;48110;47.532;19.078;2022-09-12T00:14:32;100166.81;;;14.08;100.00
62124;BME280;48110;47.532;19.078;2022-09-12T00:17:37;100171.69;;;14.04;100.00
62124;BME280;48110;47.532;19.078;2022-09-12T00:20:44;100168.84;;;14.06;100.00
62124;BME280;48110;47.532;19.078;2022-09-12T00:23:49;100167.19;;;14.05;100.00
62124;BME280;48110;47.532;19.078;2022-09-12T00:26:52;100180.94;;;14.02;100.00
62124;BME280;48110;47.532;19.078;2022-09-12T00:29:54;100175.41;;;14.03;100.00
62124;BME280;48110;47.532;19.078;2022-09-12T00:32:57;100169.00;;;13.98;100.00
62124;BME280;48110;47.532;19.078;2022-09-12T00:36:04;100172.50;;;13.98;100.00
62124;BME280;48110;47.532;19.078;2022-09-12T00:39:07;100174.09;;;13.92;100.00
62124;BME280;48110;47.532;19.078;2022-09-12T00:42:11;100177.59;;;13.93;100.00
62124;BME280;48110;47.532;19.078;2022-09-12T00:45:23;100178.78;;;13.90;100.00
62124;BME280;48110;47.532;19.078;2022-09-12T00:48:34;100183.69;;;13.87;100.00
62124;BME280;48110;47.532;19.078;2022-09-12T00:51:59;100180.84;;;13.88;100.00
62124;BME280;48110;47.532;19.078;2022-09-12T00:55:18;100175.44;;;13.82;100.00
62124;BME280;48110;47.532;19.078;2022-09-12T00:58:25;100194.13;;;13.82;100.00
62124;BME280;48110;47.532;19.078;2022-09-12T01:01:30;100184.91;;;13.84;100.00
62124;BME280;48110;47.532;19.078;2022-09-12T01:04:35;100180.78;;;13.82;100.00
62124;BME280;48110;47.532;19.078;2022-09-12T01:07:40;100180.53;;;13.77;100.00
62124;BME280;48110;47.532;19.078;2022-09-12T01:10:44;100168.47;;;13.81;100.00
62124;BME280;48110;47.532;19.078;2022-09-12T01:13:48;100169.47;;;13.80;100.00
62124;BME280;48110;47.532;19.078;2022-09-12T01:16:51;100170.50;;;13.79;100.00
62124;BME280;48110;47.532;19.078;2022-09-12T01:23:37;100158.38;;;13.76;100.00
62124;BME280;48110;47.532;19.078;2022-09-12T01:27:12;100156.69;;;13.69;100.00
62124;BME280;48110;47.532;19.078;2022-09-12T01:40:22;100175.38;;;13.75;100.00
62124;BME280;48110;47.532;19.078;2022-09-12T01:43:34;100165.13;;;13.72;100.00
62124;BME280;48110;47.532;19.078;2022-09-12T01:47:00;100172.69;;;13.69;100.00
62124;BME280;48110;47.532;19.078;2022-09-12T01:53:24;100178.12;;;13.61;100.00
62124;BME280;48110;47.532;19.078;2022-09-12T01:56:32;100175.72;;;13.66;100.00
62124;BME280;48110;47.532;19.078;2022-09-12T01:59:44;100178.12;;;13.61;100.00
62124;BME280;48110;47.532;19.078;2022-09-12T02:02:53;100176.44;;;13.53;100.00
62124;BME280;48110;47.532;19.078;2022-09-12T02:06:03;100167.19;;;13.49;100.00
62124;BME280;48110;47.532;19.078;2022-09-12T02:09:15;100175.50;;;13.39;100.00
62124;BME280;48110;47.532;19.078;2022-09-12T02:12:25;100168.34;;;13.40;100.00
62124;BME280;48110;47.532;19.078;2022-09-12T02:15:36;100165.09;;;13.44;100.00
62124;BME280;48110;47.532;19.078;2022-09-12T02:18:44;100168.44;;;13.53;100.00
62124;BME280;48110;47.532;19.078;2022-09-12T02:21:54;100165.13;;;13.51;100.00
62124;BME280;48110;47.532;19.078;2022-09-12T02:24:59;100167.00;;;13.51;100.00
62124;BME280;48110;47.532;19.078;2022-09-12T02:28:24;100162.69;;;13.49;100.00
62124;BME280;48110;47.532;19.078;2022-09-12T02:31:33;100162.47;;;13.51;100.00
62124;BME280;48110;47.532;19.078;2022-09-12T02:35:00;100169.53;;;13.59;100.00
62124;BME280;48110;47.532;19.078;2022-09-12T02:38:53;100169.56;;;13.65;100.00
62124;BME280;48110;47.532;19.078;2022-09-12T02:41:30;100175.78;;;13.51;100.00
62124;BME280;48110;47.532;19.078;2022-09-12T02:44:34;100188.50;;;13.49;100.00
62124;BME280;48110;47.532;19.078;2022-09-12T02:47:51;100182.34;;;13.48;100.00
62124;BME280;48110;47.532;19.078;2022-09-12T02:50:55;100185.41;;;13.45;100.00
62124;BME280;48110;47.532;19.078;2022-09-12T02:53:58;100189.44;;;13.41;100.00
62124;BME280;48110;47.532;19.078;2022-09-12T02:57:02;100192.91;;;13.35;100.00
62124;BME280;48110;47.532;19.078;2022-09-12T03:00:05;100194.72;;;13.35;100.00
62124;BME280;48110;47.532;19.078;2022-09-12T03:06:36;100187.91;;;13.32;100.00
62124;BME280;48110;47.532;19.078;2022-09-12T03:26:43;100193.00;;;13.27;100.00
62124;BME280;48110;47.532;19.078;2022-09-12T03:29:50;100189.06;;;13.23;100.00
62124;BME280;48110;47.532;19.078;2022-09-12T03:32:53;100192.44;;;13.32;100.00
62124;BME280;48110;47.532;19.078;2022-09-12T03:35:56;100200.25;;;13.33;100.00
62124;BME280;48110;47.532;19.078;2022-09-12T03:39:00;100194.03;;;13.26;100.00
62124;BME280;48110;47.532;19.078;2022-09-12T03:42:02;100193.94;;;13.20;100.00
62124;BME280;48110;47.532;19.078;2022-09-12T03:45:05;100194.56;;;13.22;100.00
62124;BME280;48110;47.532;19.078;2022-09-12T03:48:09;100193.37;;;13.24;100.00
62124;BME280;48110;47.532;19.078;2022-09-12T03:51:11;100195.88;;;13.26;100.00
62124;BME280;48110;47.532;19.078;2022-09-12T03:54:14;100191.38;;;13.26;100.00
62124;BME280;48110;47.532;19.078;2022-09-12T03:57:17;100192.63;;;13.30;100.00
62124;BME280;48110;47.532;19.078;2022-09-12T04:00:21;100194.59;;;13.43;100.00
62124;BME280;48110;47.532;19.078;2022-09-12T04:03:24;100191.50;;;13.39;100.00
62124;BME280;48110;47.532;19.078;2022-09-12T04:06:26;100192.06;;;13.35;100.00
62124;BME280;48110;47.532;19.078;2022-09-12T04:09:29;100185.72;;;13.36;100.00
62124;BME280;48110;47.532;19.078;2022-09-12T04:12:32;100202.66;;;13.28;100.00
62124;BME280;48110;47.532;19.078;2022-09-12T04:15:34;100203.88;;;13.26;100.00
62124;BME280;48110;47.532;19.078;2022-09-12T04:18:37;100207.66;;;13.17;100.00
62124;BME280;48110;47.532;19.078;2022-09-12T04:21:40;100197.38;;;13.14;100.00
62124;BME280;48110;47.532;19.078;2022-09-12T04:24:43;100204.88;;;13.10;100.00
62124;BME280;48110;47.532;19.078;2022-09-12T04:27:45;100203.22;;;13.09;100.00
62124;BME280;48110;47.532;19.078;2022-09-12T04:30:48;100202.13;;;13.03;100.00
62124;BME280;48110;47.532;19.078;2022-09-12T04:33:56;100206.47;;;13.04;100.00
62124;BME280;48110;47.532;19.078;2022-09-12T04:36:59;100207.84;;;13.15;100.00
62124;BME280;48110;47.532;19.078;2022-09-12T04:40:02;100211.78;;;13.19;100.00
62124;BME280;48110;47.532;19.078;2022-09-12T04:43:04;100202.34;;;13.17;100.00
62124;BME280;48110;47.532;19.078;2022-09-12T04:46:14;100206.06;;;13.22;100.00
62124;BME280;48110;47.532;19.078;2022-09-12T04:49:17;100205.69;;;13.25;100.00
62124;BME280;48110;47.532;19.078;2022-09-12T04:52:21;100205.31;;;13.28;100.00
62124;BME280;48110;47.532;19.078;2022-09-12T04:55:23;100201.81;;;13.28;100.00
62124;BME280;48110;47.532;19.078;2022-09-12T04:58:26;100214.78;;;13.31;100.00
62124;BME280;48110;47.532;19.078;2022-09-12T05:01:29;100216.22;;;13.33;100.00
62124;BME280;48110;47.532;19.078;2022-09-12T05:04:32;100210.47;;;13.30;100.00
62124;BME280;48110;47.532;19.078;2022-09-12T05:07:34;100214.00;;;13.37;100.00
62124;BME280;48110;47.532;19.078;2022-09-12T05:10:37;100205.63;;;13.40;100.00
62124;BME280;48110;47.532;19.078;2022-09-12T05:13:40;100209.56;;;13.44;100.00
62124;BME280;48110;47.532;19.078;2022-09-12T05:16:43;100212.50;;;13.49;100.00
62124;BME280;48110;47.532;19.078;2022-09-12T05:19:50;100207.41;;;13.54;100.00
62124;BME280;48110;47.532;19.078;2022-09-12T05:22:53;100213.81;;;13.60;100.00
62124;BME280;48110;47.532;19.078;2022-09-12T05:25:57;100217.34;;;13.67;100.00
62124;BME280;48110;47.532;19.078;2022-09-12T05:29:03;100225.09;;;13.83;100.00
62124;BME280;48110;47.532;19.078;2022-09-12T05:32:06;100235.47;;;13.99;100.00
62124;BME280;48110;47.532;19.078;2022-09-12T05:35:09;100230.94;;;14.21;100.00
62124;BME280;48110;47.532;19.078;2022-09-12T05:38:12;100246.41;;;14.32;100.00
62124;BME280;48110;47.532;19.078;2022-09-12T05:41:17;100257.50;;;14.35;100.00
62124;BME280;48110;47.532;19.078;2022-09-12T05:44:26;100253.19;;;14.34;100.00
62124;BME280;48110;47.532;19.078;2022-09-12T05:47:29;100251.78;;;14.39;100.00
62124;BME280;48110;47.532;19.078;2022-09-12T05:50:32;100250.50;;;14.34;100.00
62124;BME280;48110;47.532;19.078;2022-09-12T05:53:36;100256.69;;;14.35;100.00
62124;BME280;48110;47.532;19.078;2022-09-12T05:56:41;100259.88;;;14.24;100.00
62124;BME280;48110;47.532;19.078;2022-09-12T05:59:44;100257.44;;;14.29;100.00
62124;BME280;48110;47.532;19.078;2022-09-12T06:02:51;100254.72;;;14.44;100.00
62124;BME280;48110;47.532;19.078;2022-09-12T06:05:54;100254.47;;;14.39;100.00
62124;BME280;48110;47.532;19.078;2022-09-12T06:08:59;100250.25;;;14.51;100.00
62124;BME280;48110;47.532;19.078;2022-09-12T06:12:02;100249.59;;;14.42;100.00
62124;BME280;48110;47.532;19.078;2022-09-12T06:15:05;100264.59;;;14.50;100.00
62124;BME280;48110;47.532;19.078;2022-09-12T06:18:09;100257.03;;;14.53;100.00
62124;BME280;48110;47.532;19.078;2022-09-12T06:21:12;100266.34;;;14.64;100.00
62124;BME280;48110;47.532;19.078;2022-09-12T06:24:17;100264.97;;;14.74;100.00
62124;BME280;48110;47.532;19.078;2022-09-12T06:27:19;100265.31;;;15.06;100.00
62124;BME280;48110;47.532;19.078;2022-09-12T06:30:22;100260.66;;;15.28;98.30
62124;BME280;48110;47.532;19.078;2022-09-12T06:33:26;100262.25;;;15.76;94.99
62124;BME280;48110;47.532;19.078;2022-09-12T06:36:44;100268.41;;;15.63;95.43
62124;BME280;48110;47.532;19.078;2022-09-12T06:39:47;100268.84;;;15.87;94.93
62124;BME280;48110;47.532;19.078;2022-09-12T06:42:50;100277.03;;;16.51;90.37
62124;BME280;48110;47.532;19.078;2022-09-12T06:46:01;100272.09;;;16.48;88.81
62124;BME280;48110;47.532;19.078;2022-09-12T06:49:04;100278.22;;;16.88;86.65
62124;BME280;48110;47.532;19.078;2022-09-12T06:52:06;100276.88;;;17.17;85.48
62124;BME280;48110;47.532;19.078;2022-09-12T06:55:09;100269.09;;;17.09;84.59
62124;BME280;48110;47.532;19.078;2022-09-12T06:58:11;100278.28;;;17.57;81.81
62124;BME280;48110;47.532;19.078;2022-09-12T07:01:21;100275.75;;;16.86;84.30
62124;BME280;48110;47.532;19.078;2022-09-12T07:04:24;100278.91;;;16.64;85.58
62124;BME280;48110;47.532;19.078;2022-09-12T07:07:27;100264.44;;;16.71;85.77
62124;BME280;48110;47.532;19.078;2022-09-12T07:10:31;100270.13;;;17.84;80.48
62124;BME280;48110;47.532;19.078;2022-09-12T07:13:34;100275.13;;;17.73;80.30
62124;BME280;48110;47.532;19.078;2022-09-12T07:16:36;100285.91;;;18.48;76.71
62124;BME280;48110;47.532;19.078;2022-09-12T07:19:39;100283.78;;;18.56;76.08
62124;BME280;48110;47.532;19.078;2022-09-12T07:22:42;100281.84;;;18.39;75.58
62124;BME280;48110;47.532;19.078;2022-09-12T07:25:55;100283.50;;;18.15;76.54
62124;BME280;48110;47.532;19.078;2022-09-12T07:28:58;100282.59;;;19.07;72.25
62124;BME280;48110;47.532;19.078;2022-09-12T07:32:21;100286.44;;;19.29;70.25
62124;BME280;48110;47.532;19.078;2022-09-12T07:35:25;100288.22;;;19.53;69.53
62124;BME280;48110;47.532;19.078;2022-09-12T07:38:28;100293.50;;;19.12;69.78
62124;BME280;48110;47.532;19.078;2022-09-12T07:41:31;100288.63;;;17.54;77.51
62124;BME280;48110;47.532;19.078;2022-09-12T07:44:37;100296.75;;;18.59;73.84
62124;BME280;48110;47.532;19.078;2022-09-12T07:47:40;100297.91;;;17.58;78.39
62124;BME280;48110;47.532;19.078;2022-09-12T07:50:42;100298.31;;;18.24;74.89
62124;BME280;48110;47.532;19.078;2022-09-12T07:53:47;100297.31;;;17.56;78.20
62124;BME280;48110;47.532;19.078;2022-09-12T07:56:51;100295.22;;;19.06;73.33
62124;BME280;48110;47.532;19.078;2022-09-12T07:59:53;100304.63;;;19.64;68.75
62124;BME280;48110;47.532;19.078;2022-09-12T08:02:56;100292.56;;;19.96;66.78
62124;BME280;48110;47.532;19.078;2022-09-12T08:06:11;100290.72;;;20.20;64.91
62124;BME280;48110;47.532;19.078;2022-09-12T08:09:13;100292.25;;;20.27;64.33
62124;BME280;48110;47.532;19.078;2022-09-12T08:12:18;100290.47;;;21.03;61.26
62124;BME280;48110;47.532;19.078;2022-09-12T08:15:21;100299.28;;;20.98;61.20
62124;BME280;48110;47.532;19.078;2022-09-12T08:18:28;100303.94;;;21.54;59.99
62124;BME280;48110;47.532;19.078;2022-09-12T08:21:32;100295.22;;;21.36;60.17
62124;BME280;48110;47.532;19.078;2022-09-12T08:24:35;100298.19;;;21.11;60.73
62124;BME280;48110;47.532;19.078;2022-09-12T08:27:38;100295.19;;;20.72;61.74
62124;BME280;48110;47.532;19.078;2022-09-12T08:30:41;100294.34;;;21.75;59.28
62124;BME280;48110;47.532;19.078;2022-09-12T08:33:43;100294.87;;;22.72;55.63
62124;BME280;48110;47.532;19.078;2022-09-12T08:36:46;100289.78;;;22.59;56.11
62124;BME280;48110;47.532;19.078;2022-09-12T08:39:49;100285.44;;;23.40;53.65
62124;BME280;48110;47.532;19.078;2022-09-12T08:43:17;100287.72;;;23.48;52.41
62124;BME280;48110;47.532;19.078;2022-09-12T08:50:02;100278.78;;;23.74;49.89
62124;BME280;48110;47.532;19.078;2022-09-12T08:53:18;100286.75;;;24.55;48.37
62124;BME280;48110;47.532;19.078;2022-09-12T08:56:25;100288.63;;;22.72;52.17
62124;BME280;48110;47.532;19.078;2022-09-12T08:59:38;100278.69;;;20.80;58.39
62124;BME280;48110;47.532;19.078;2022-09-12T09:02:53;100280.22;;;20.53;59.91
62124;BME280;48110;47.532;19.078;2022-09-12T09:13:06;100271.31;;;19.76;62.57
62124;BME280;48110;47.532;19.078;2022-09-12T09:16:39;100270.16;;;19.24;63.51
62124;BME280;48110;47.532;19.078;2022-09-12T09:19:47;100263.19;;;19.35;62.82
62124;BME280;48110;47.532;19.078;2022-09-12T09:23:15;100266.06;;;19.22;63.20
62124;BME280;48110;47.532;19.078;2022-09-12T09:26:28;100264.56;;;19.44;63.39
62124;BME280;48110;47.532;19.078;2022-09-12T09:29:39;100257.09;;;19.58;63.66
62124;BME280;48110;47.532;19.078;2022-09-12T09:32:48;100271.53;;;19.63;63.33
62124;BME280;48110;47.532;19.078;2022-09-12T09:36:11;100273.34;;;19.51;63.73
62124;BME280;48110;47.532;19.078;2022-09-12T09:39:23;100259.97;;;19.74;61.84
62124;BME280;48110;47.532;19.078;2022-09-12T09:42:59;100264.34;;;20.10;59.79
62124;BME280;48110;47.532;19.078;2022-09-12T09:46:06;100270.56;;;20.11;59.47
62124;BME280;48110;47.532;19.078;2022-09-12T09:49:12;100266.06;;;19.81;60.89
62124;BME280;48110;47.532;19.078;2022-09-12T09:52:25;100264.37;;;20.22;58.97
62124;BME280;48110;47.532;19.078;2022-09-12T09:55:39;100272.81;;;20.83;58.74
62124;BME280;48110;47.532;19.078;2022-09-12T09:58:43;100273.03;;;20.82;55.17
62124;BME280;48110;47.532;19.078;2022-09-12T10:01:50;100268.97;;;20.56;55.24
62124;BME280;48110;47.532;19.078;2022-09-12T10:04:57;100260.09;;;20.32;58.00
62124;BME280;48110;47.532;19.078;2022-09-12T10:08:02;100267.91;;;20.22;58.84
62124;BME280;48110;47.532;19.078;2022-09-12T10:11:18;100260.13;;;19.91;59.46
62124;BME280;48110;47.532;19.078;2022-09-12T10:17:42;100260.00;;;20.09;58.24
62124;BME280;48110;47.532;19.078;2022-09-12T10:20:45;100259.19;;;19.97;58.02
62124;BME280;48110;47.532;19.078;2022-09-12T10:23:52;100252.81;;;19.68;58.02
62124;BME280;48110;47.532;19.078;2022-09-12T10:27:15;100268.66;;;19.28;59.27
62124;BME280;48110;47.532;19.078;2022-09-12T10:30:22;100265.53;;;19.13;57.94
62124;BME280;48110;47.532;19.078;2022-09-12T10:33:31;100270.91;;;19.31;58.68
62124;BME280;48110;47.532;19.078;2022-09-12T10:36:39;100268.75;;;19.81;57.26
62124;BME280;48110;47.532;19.078;2022-09-12T10:39:49;100266.06;;;19.70;57.82
62124;BME280;48110;47.532;19.078;2022-09-12T10:42:59;100258.34;;;19.85;57.49
62124;BME280;48110;47.532;19.078;2022-09-12T10:49:24;100267.06;;;20.22;57.56
62124;BME280;48110;47.532;19.078;2022-09-12T10:52:27;100260.25;;;20.77;56.62
62124;BME280;48110;47.532;19.078;2022-09-12T10:55:32;100260.78;;;20.51;56.75
62124;BME280;48110;47.532;19.078;2022-09-12T11:05:42;100245.47;;;21.60;53.73
62124;BME280;48110;47.532;19.078;2022-09-12T11:09:12;100249.69;;;20.99;54.52
62124;BME280;48110;47.532;19.078;2022-09-12T11:12:40;100248.97;;;21.44;52.67
62124;BME280;48110;47.532;19.078;2022-09-12T11:16:03;100250.47;;;21.40;52.76
62124;BME280;48110;47.532;19.078;2022-09-12T11:19:22;100238.59;;;21.52;53.16
62124;BME280;48110;47.532;19.078;2022-09-12T11:26:11;100245.00;;;23.33;48.14
62124;BME280;48110;47.532;19.078;2022-09-12T11:29:50;100231.75;;;26.63;38.77
62124;BME280;48110;47.532;19.078;2022-09-12T11:36:09;100235.25;;;28.69;34.73
62124;BME280;48110;47.532;19.078;2022-09-12T11:39:16;100242.22;;;29.04;33.77
62124;BME280;48110;47.532;19.078;2022-09-12T11:42:32;100239.91;;;28.16;34.92
62124;BME280;48110;47.532;19.078;2022-09-12T11:45:42;100229.03;;;24.17;42.48
62124;BME280;48110;47.532;19.078;2022-09-12T11:52:05;100236.91;;;21.35;49.38
62124;BME280;48110;47.532;19.078;2022-09-12T11:55:16;100233.22;;;21.12;51.05
62124;BME280;48110;47.532;19.078;2022-09-12T11:58:24;100225.12;;;20.26;55.07
62124;BME280;48110;47.532;19.078;2022-09-12T12:01:34;100236.84;;;20.20;55.32
62124;BME280;48110;47.532;19.078;2022-09-12T12:08:23;100234.38;;;19.83;56.66
62124;BME280;48110;47.532;19.078;2022-09-12T12:11:37;100232.63;;;19.89;57.13
62124;BME280;48110;47.532;19.078;2022-09-12T12:14:43;100228.16;;;20.06;56.25
62124;BME280;48110;47.532;19.078;2022-09-12T12:18:01;100226.47;;;20.47;55.90
62124;BME280;48110;47.532;19.078;2022-09-12T12:21:40;100225.91;;;21.69;52.55
62124;BME280;48110;47.532;19.078;2022-09-12T12:38:43;100210.50;;;22.75;48.59
62124;BME280;48110;47.532;19.078;2022-09-12T12:41:46;100206.81;;;22.81;47.78
62124;BME280;48110;47.532;19.078;2022-09-12T12:44:49;100221.94;;;21.72;49.96
62124;BME280;48110;47.532;19.078;2022-09-12T12:47:55;100212.81;;;21.16;52.21
62124;BME280;48110;47.532;19.078;2022-09-12T12:54:46;100213.41;;;22.69;48.53
62124;BME280;48110;47.532;19.078;2022-09-12T12:57:53;100217.66;;;26.56;40.35
62124;BME280;48110;47.532;19.078;2022-09-12T13:04:15;100203.75;;;28.00;35.82
62124;BME280;48110;47.532;19.078;2022-09-12T13:07:31;100215.12;;;24.98;42.03
62124;BME280;48110;47.532;19.078;2022-09-12T13:10:35;100199.87;;;22.69;47.29
62124;BME280;48110;47.532;19.078;2022-09-12T13:13:56;100215.53;;;26.13;40.59
62124;BME280;48110;47.532;19.078;2022-09-12T13:17:03;100221.66;;;26.74;37.42
62124;BME280;48110;47.532;19.078;2022-09-12T13:20:25;100203.59;;;23.87;43.22
62124;BME280;48110;47.532;19.078;2022-09-12T13:23:32;100215.12;;;25.03;41.53
62124;BME280;48110;47.532;19.078;2022-09-12T13:26:41;100208.94;;;28.30;34.86
62124;BME280;48110;47.532;19.078;2022-09-12T13:29:45;100205.63;;;27.27;35.85
62124;BME280;48110;47.532;19.078;2022-09-12T13:32:48;100195.38;;;29.53;32.55
62124;BME280;48110;47.532;19.078;2022-09-12T13:42:52;100192.38;;;26.51;36.65
62124;BME280;48110;47.532;19.078;2022-09-12T13:46:08;100188.25;;;24.39;40.84
62124;BME280;48110;47.532;19.078;2022-09-12T13:49:32;100172.69;;;22.37;44.72
62124;BME280;48110;47.532;19.078;2022-09-12T13:52:37;100185.41;;;25.59;37.79
62124;BME280;48110;47.532;19.078;2022-09-12T13:55:42;100182.03;;;27.56;34.29
62124;BME280;48110;47.532;19.078;2022-09-12T13:58:56;100171.72;;;29.06;31.19
62124;BME280;48110;47.532;19.078;2022-09-12T14:01:59;100167.53;;;31.78;27.17
62124;BME280;48110;47.532;19.078;2022-09-12T14:05:22;100174.41;;;30.81;27.01
62124;BME280;48110;47.532;19.078;2022-09-12T14:08:25;100162.72;;;27.47;30.28
62124;BME280;48110;47.532;19.078;2022-09-12T14:11:29;100179.50;;;26.71;31.59
62124;BME280;48110;47.532;19.078;2022-09-12T14:14:34;100162.41;;;24.89;35.21
62124;BME280;48110;47.532;19.078;2022-09-12T14:17:38;100154.06;;;23.59;36.85
62124;BME280;48110;47.532;19.078;2022-09-12T14:20:44;100155.19;;;23.36;37.96
62124;BME280;48110;47.532;19.078;2022-09-12T14:23:47;100148.34;;;23.56;37.95
62124;BME280;48110;47.532;19.078;2022-09-12T14:26:53;100151.66;;;22.22;40.63
62124;BME280;48110;47.532;19.078;2022-09-12T14:30:06;100156.84;;;21.90;40.82
62124;BME280;48110;47.532;19.078;2022-09-12T14:36:50;100164.66;;;21.87;41.99
62124;BME280;48110;47.532;19.078;2022-09-12T14:39:54;100159.47;;;21.85;41.74
62124;BME280;48110;47.532;19.078;2022-09-12T14:42:58;100154.91;;;21.52;42.18
62124;BME280;48110;47.532;19.078;2022-09-12T14:46:16;100154.66;;;21.54;42.57
62124;BME280;48110;47.532;19.078;2022-09-12T14:49:33;100160.22;;;21.47;42.76
62124;BME280;48110;47.532;19.078;2022-09-12T14:52:37;100156.59;;;21.42;42.01
62124;BME280;48110;47.532;19.078;2022-09-12T14:55:44;100152.91;;;21.31;41.48
62124;BME280;48110;47.532;19.078;2022-09-12T14:58:47;100162.97;;;21.19;41.57
62124;BME280;48110;47.532;19.078;2022-09-12T15:05:24;100161.91;;;20.80;42.56
62124;BME280;48110;47.532;19.078;2022-09-12T15:08:28;100158.41;;;20.79;43.19
62124;BME280;48110;47.532;19.078;2022-09-12T15:11:31;100157.19;;;20.87;43.45
62124;BME280;48110;47.532;19.078;2022-09-12T15:14:35;100155.94;;;20.78;43.39
62124;BME280;48110;47.532;19.078;2022-09-12T15:17:38;100144.94;;;20.68;44.02
62124;BME280;48110;47.532;19.078;2022-09-12T15:20:44;100143.22;;;20.62;44.47
62124;BME280;48110;47.532;19.078;2022-09-12T15:23:49;100150.59;;;20.66;44.67
62124;BME280;48110;47.532;19.078;2022-09-12T15:26:52;100146.06;;;20.55;44.53
62124;BME280;48110;47.532;19.078;2022-09-12T15:29:54;100146.19;;;20.49;45.11
62124;BME280;48110;47.532;19.078;2022-09-12T15:32:57;100148.31;;;20.47;45.17
62124;BME280;48110;47.532;19.078;2022-09-12T15:36:01;100136.81;;;20.39;45.32
62124;BME280;48110;47.532;19.078;2022-09-12T15:39:04;100146.09;;;20.32;45.60
62124;BME280;48110;47.532;19.078;2022-09-12T15:42:08;100150.44;;;20.33;45.82
62124;BME280;48110;47.532;19.078;2022-09-12T15:45:18;100141.63;;;20.26;45.59
62124;BME280;48110;47.532;19.078;2022-09-12T15:48:23;100141.75;;;20.19;45.78
62124;BME280;48110;47.532;19.078;2022-09-12T15:51:26;100139.03;;;20.19;45.85
62124;BME280;48110;47.532;19.078;2022-09-12T15:54:29;100140.25;;;20.23;45.53
62124;BME280;48110;47.532;19.078;2022-09-12T15:57:31;100141.06;;;20.12;45.64
62124;BME280;48110;47.532;19.078;2022-09-12T16:00:34;100140.12;;;20.07;45.63
62124;BME280;48110;47.532;19.078;2022-09-12T16:03:37;100144.69;;;20.06;45.97
62124;BME280;48110;47.532;19.078;2022-09-12T16:06:39;100138.97;;;20.03;45.60
62124;BME280;48110;47.532;19.078;2022-09-12T16:09:42;100145.87;;;19.99;45.94
62124;BME280;48110;47.532;19.078;2022-09-12T16:12:45;100159.78;;;19.95;46.19
62124;BME280;48110;47.532;19.078;2022-09-12T16:15:47;100146.81;;;19.92;46.83
62124;BME280;48110;47.532;19.078;2022-09-12T16:18:50;100145.28;;;19.85;47.21
62124;BME280;48110;47.532;19.078;2022-09-12T16:21:53;100153.25;;;19.80;47.82
62124;BME280;48110;47.532;19.078;2022-09-12T16:24:55;100154.19;;;19.74;48.31
62124;BME280;48110;47.532;19.078;2022-09-12T16:27:58;100152.75;;;19.71;48.54
62124;BME280;48110;47.532;19.078;2022-09-12T16:31:04;100152.16;;;19.58;49.10
62124;BME280;48110;47.532;19.078;2022-09-12T16:34:07;100151.34;;;19.57;49.37
62124;BME280;48110;47.532;19.078;2022-09-12T16:37:10;100157.41;;;19.52;49.61
62124;BME280;48110;47.532;19.078;2022-09-12T16:40:13;100148.78;;;19.50;49.75
62124;BME280;48110;47.532;19.078;2022-09-12T16:43:19;100148.94;;;19.37;50.33
62124;BME280;48110;47.532;19.078;2022-09-12T16:46:26;100146.78;;;19.16;51.24
62124;BME280;48110;47.532;19.078;2022-09-12T16:49:31;100148.84;;;19.02;51.81
62124;BME280;48110;47.532;19.078;2022-09-12T16:52:34;100143.56;;;19.07;51.17
62124;BME280;48110;47.532;19.078;2022-09-12T16:55:37;100139.50;;;19.05;51.15
62124;BME280;48110;47.532;19.078;2022-09-12T16:58:40;100143.62;;;18.89;51.66
62124;BME280;48110;47.532;19.078;2022-09-12T17:01:43;100133.78;;;18.83;52.04
62124;BME280;48110;47.532;19.078;2022-09-12T17:04:46;100141.13;;;18.76;52.48
62124;BME280;48110;47.532;19.078;2022-09-12T17:07:50;100140.38;;;18.69;52.69
62124;BME280;48110;47.532;19.078;2022-09-12T17:11:05;100145.47;;;18.59;53.16
62124;BME280;48110;47.532;19.078;2022-09-12T17:14:07;100153.97;;;18.56;53.30
62124;BME280;48110;47.532;19.078;2022-09-12T17:17:11;100154.81;;;18.56;53.47
62124;BME280;48110;47.532;19.078;2022-09-12T17:20:14;100159.84;;;18.46;53.81
62124;BME280;48110;47.532;19.078;2022-09-12T17:23:17;100157.16;;;18.28;54.17
62124;BME280;48110;47.532;19.078;2022-09-12T17:26:19;100159.84;;;18.28;54.31
62124;BME280;48110;47.532;19.078;2022-09-12T17:29:22;100161.19;;;18.19;54.16
62124;BME280;48110;47.532;19.078;2022-09-12T17:32:25;100165.66;;;18.25;54.04
62124;BME280;48110;47.532;19.078;2022-09-12T17:35:28;100164.09;;;18.17;54.48
62124;BME280;48110;47.532;19.078;2022-09-12T17:38:31;100173.28;;;18.10;54.28
62124;BME280;48110;47.532;19.078;2022-09-12T17:41:36;100174.34;;;18.02;54.64
62124;BME280;48110;47.532;19.078;2022-09-12T17:44:39;100179.81;;;17.96;54.76
62124;BME280;48110;47.532;19.078;2022-09-12T17:47:42;100186.06;;;17.90;54.18
62124;BME280;48110;47.532;19.078;2022-09-12T17:50:44;100184.56;;;17.69;55.38